Moose Of Poole — 2IPZ6 — position and weather

sailwx.info

Track history (hours):
 
Tides and Currents Weather Stations Pressure Air Temp Water Temp Dewpoint Dewpoint Depression Visibility Wind Speed Wind Dir Waves Ship Positions

Moose Of Poole

Last reported at 2018-Mar-05 11:38 UTC. Time now 2018-Jul-16 22:09 UTC.
Position N 16°07' W 061°47'.
Warning: this ship's position is months out of date.

Length 18 m.

Type: Sailing vessel. MMSI: 235111821.

Date/timePositionNaut miles runAvg speedWind from/ knotsBaromVisibWave heightAir tempDewpointWater temp
2018-Mar-05 11:38N 16°07' W 061°47'11 0.6
2018-Mar-04 16:36N 16°18' W 061°50'1 7.4
2018-Mar-04 16:28N 16°19' W 061°50'3 7.2
2018-Mar-04 16:00N 16°22' W 061°50'4 7.2
2018-Mar-04 15:30N 16°26' W 061°50'4 7.2
2018-Mar-04 15:00N 16°29' W 061°50'3 6.5
2018-Mar-04 14:30N 16°32' W 061°50'2 4.3
2018-Mar-04 14:00N 16°35' W 061°50'3 6.2
2018-Mar-04 13:28N 16°38' W 061°50'3 6.3
2018-Mar-04 13:00N 16°41' W 061°49'4 7.1
2018-Mar-04 12:30N 16°44' W 061°49'4 7.4
2018-Mar-04 12:00N 16°48' W 061°49'4 7.6
2018-Mar-04 11:30N 16°52' W 061°48'4 7.5
2018-Mar-04 11:00N 16°55' W 061°48'4 7.2
2018-Mar-04 10:29N 16°59' W 061°47'2 3.3
2018-Mar-04 09:59N 17°01' W 061°47'0 0.0
2018-Mar-04 09:29N 17°01' W 061°47'0 0.0
2018-Mar-04 08:59N 17°01' W 061°47'0 0.0
2018-Mar-04 08:29N 17°01' W 061°47'0 0.0
2018-Mar-04 07:59N 17°01' W 061°47'0 0.0
2018-Mar-04 07:29N 17°01' W 061°47'0 0.0
2018-Mar-04 06:59N 17°01' W 061°47'0 0.0
2018-Mar-04 06:29N 17°01' W 061°47'0 0.0
2018-Mar-04 05:59N 17°01' W 061°47'0 0.0
2018-Mar-04 05:29N 17°01' W 061°47'0 0.0
2018-Mar-04 04:59N 17°01' W 061°47'0 0.0
2018-Mar-04 04:29N 17°01' W 061°47'0 0.0
2018-Mar-04 03:59N 17°01' W 061°47'0 0.0
2018-Mar-04 03:29N 17°01' W 061°47'0 0.0
2018-Mar-04 02:59N 17°01' W 061°47'0 0.0
2018-Mar-04 02:29N 17°01' W 061°47'0 0.0
2018-Mar-04 01:59N 17°01' W 061°47'0 0.0
2018-Mar-04 01:29N 17°01' W 061°47'0 0.0
2018-Mar-04 00:59N 17°01' W 061°47'0 0.0
2018-Mar-04 00:29N 17°01' W 061°47'0 0.0
2018-Mar-03 23:59N 17°01' W 061°47'0 0.0
2018-Mar-03 23:29N 17°01' W 061°47'0 0.0
2018-Mar-03 22:59N 17°01' W 061°47'0 0.0
2018-Mar-03 22:29N 17°01' W 061°47'0 0.0
2018-Mar-03 21:59N 17°01' W 061°47'0 0.0
2018-Mar-03 21:29N 17°01' W 061°47'0 0.0
2018-Mar-03 20:59N 17°01' W 061°47'0 0.0
2018-Mar-03 20:29N 17°01' W 061°47'0 0.0
2018-Mar-03 19:59N 17°01' W 061°47'0 0.0
2018-Mar-03 19:29N 17°01' W 061°47'0 0.0
2018-Mar-03 18:59N 17°01' W 061°47'0 0.0
2018-Mar-03 18:29N 17°01' W 061°47'0 0.0
2018-Mar-03 17:59N 17°01' W 061°47'0 0.0
2018-Mar-03 17:29N 17°01' W 061°47'0 0.0
2018-Mar-03 16:59N 17°01' W 061°47'0 0.0
2018-Mar-03 16:29N 17°01' W 061°47'0 0.0
2018-Mar-03 15:59N 17°01' W 061°47'0 0.0
2018-Mar-03 15:29N 17°01' W 061°47'0 0.0
2018-Mar-03 14:59N 17°01' W 061°47'0 0.0
2018-Mar-03 14:29N 17°01' W 061°47'0 0.0
2018-Mar-03 13:59N 17°01' W 061°47'1 0.0
2018-Mar-01 17:24N 17°01' W 061°46'0 0.0
2018-Mar-01 14:49N 17°01' W 061°46'0 0.0
2018-Mar-01 14:28N 17°01' W 061°46'0 0.0
2018-Feb-28 12:33N 17°01' W 061°46'0 0.1
2018-Feb-28 12:30N 17°01' W 061°46'1 0.1
2018-Feb-28 05:01N 17°01' W 061°47'0 0.0
2018-Feb-28 04:58N 17°01' W 061°47'0 0.0
2018-Feb-28 04:28N 17°01' W 061°47'0 0.0
2018-Feb-28 03:58N 17°01' W 061°47'0 0.0
2018-Feb-28 03:28N 17°01' W 061°47'0 0.0
2018-Feb-28 02:58N 17°01' W 061°47'0 0.0
2018-Feb-28 02:28N 17°01' W 061°47'0 0.0
2018-Feb-28 01:58N 17°01' W 061°47'0 0.0
2018-Feb-28 01:28N 17°01' W 061°47'0 0.0
2018-Feb-28 00:58N 17°01' W 061°47'0 0.0
2018-Feb-28 00:28N 17°01' W 061°47'0 0.0
2018-Feb-27 23:58N 17°01' W 061°47'0 0.0
2018-Feb-27 23:28N 17°01' W 061°47'0 0.0
2018-Feb-27 22:58N 17°01' W 061°47'0 0.0
2018-Feb-27 22:28N 17°01' W 061°47'0 0.0
2018-Feb-27 21:58N 17°01' W 061°47'0 0.0
2018-Feb-27 21:28N 17°01' W 061°47'0 0.0
2018-Feb-27 20:58N 17°01' W 061°47'0 0.0
2018-Feb-27 20:28N 17°01' W 061°47'0 0.0
2018-Feb-27 19:58N 17°01' W 061°47'0 0.0
2018-Feb-27 19:28N 17°01' W 061°47'0 0.0
2018-Feb-27 18:58N 17°01' W 061°47'0 0.0
2018-Feb-27 18:28N 17°01' W 061°47'0 0.0
2018-Feb-27 17:58N 17°01' W 061°47'0 0.0
2018-Feb-27 17:28N 17°01' W 061°47'0 0.0
2018-Feb-27 16:58N 17°01' W 061°47'0 0.0
2018-Feb-27 16:28N 17°01' W 061°47'0 0.0
2018-Feb-27 15:58N 17°01' W 061°47'0 0.0
2018-Feb-27 15:28N 17°01' W 061°47'0 0.0
2018-Feb-27 14:58N 17°01' W 061°47'0 0.0
2018-Feb-27 14:28N 17°01' W 061°47'0 0.0
2018-Feb-27 13:58N 17°01' W 061°47'0 0.0
2018-Feb-27 13:28N 17°01' W 061°47'0 0.0
2018-Feb-27 12:55N 17°01' W 061°47'0 0.0
2018-Feb-27 12:28N 17°01' W 061°47'0 0.0
2018-Feb-27 11:58N 17°01' W 061°47'0 0.0
2018-Feb-27 11:28N 17°01' W 061°47'0 0.0
2018-Feb-27 10:58N 17°01' W 061°47'0 0.0
2018-Feb-27 10:28N 17°01' W 061°47'0 0.0
2018-Feb-27 09:58N 17°01' W 061°47'0 0.0
2018-Feb-27 09:28N 17°01' W 061°47'0 0.0
2018-Feb-27 08:58N 17°01' W 061°47'0 0.0
2018-Feb-27 08:28N 17°01' W 061°47'0 0.0
2018-Feb-27 07:58N 17°01' W 061°47'0 0.0
2018-Feb-27 07:28N 17°01' W 061°47'0 0.0
2018-Feb-27 06:58N 17°01' W 061°47'0 0.0
2018-Feb-27 06:28N 17°01' W 061°47'0 0.0
2018-Feb-27 05:58N 17°01' W 061°47'0 0.0
2018-Feb-27 05:28N 17°01' W 061°47'0 0.0
2018-Feb-27 04:58N 17°01' W 061°47'0 0.0
2018-Feb-27 04:28N 17°01' W 061°47'0 0.0
2018-Feb-27 03:58N 17°01' W 061°47'0 0.0
2018-Feb-27 03:28N 17°01' W 061°47'0 0.0
2018-Feb-27 02:58N 17°01' W 061°47'0 0.0
2018-Feb-27 02:28N 17°01' W 061°47'0 0.0
2018-Feb-27 01:58N 17°01' W 061°47'0 0.0
2018-Feb-27 01:28N 17°01' W 061°47'0 0.0
2018-Feb-27 00:58N 17°01' W 061°47'0 0.0
2018-Feb-27 00:28N 17°01' W 061°47'0 0.0
2018-Feb-26 23:58N 17°01' W 061°47'0 0.0
2018-Feb-26 23:28N 17°01' W 061°47'0 0.0
2018-Feb-26 22:58N 17°01' W 061°47'0 0.0
2018-Feb-26 22:28N 17°01' W 061°47'0 0.0
2018-Feb-26 21:58N 17°01' W 061°47'0 0.0
2018-Feb-26 21:28N 17°01' W 061°47'0 0.0
2018-Feb-26 20:58N 17°01' W 061°47'0 0.0
2018-Feb-26 20:28N 17°01' W 061°47'0 0.0
2018-Feb-26 19:58N 17°01' W 061°47'0 0.0
2018-Feb-26 19:28N 17°01' W 061°47'0 0.0
2018-Feb-26 18:58N 17°01' W 061°47'0 0.0
2018-Feb-26 18:28N 17°01' W 061°47'0 0.0
2018-Feb-26 17:58N 17°01' W 061°47'0 0.0
2018-Feb-26 17:28N 17°01' W 061°47'0 0.0
2018-Feb-26 16:58N 17°01' W 061°47'0 0.0
2018-Feb-26 16:22N 17°01' W 061°47'0 0.0
2018-Feb-26 15:58N 17°01' W 061°47'0 0.0
2018-Feb-26 15:28N 17°01' W 061°47'0 0.0
2018-Feb-26 14:58N 17°01' W 061°47'0 0.0
2018-Feb-26 14:28N 17°01' W 061°47'0 0.0
2018-Feb-26 13:58N 17°01' W 061°47'0 0.0
2018-Feb-26 13:28N 17°01' W 061°47'0 0.0
2018-Feb-26 12:52N 17°01' W 061°47'0 0.0
2018-Feb-26 12:28N 17°01' W 061°47'0 0.0
2018-Feb-26 11:58N 17°01' W 061°47'0 0.0
2018-Feb-26 11:28N 17°01' W 061°47'0 0.0
2018-Feb-26 10:58N 17°01' W 061°47'0 0.0
2018-Feb-26 10:28N 17°01' W 061°47'0 0.0
2018-Feb-26 09:58N 17°01' W 061°47'0 0.0
2018-Feb-26 09:28N 17°01' W 061°47'0 0.0
2018-Feb-26 08:58N 17°01' W 061°47'0 0.0
2018-Feb-26 08:28N 17°01' W 061°47'0 0.0
2018-Feb-26 07:58N 17°01' W 061°47'0 0.0
2018-Feb-26 07:28N 17°01' W 061°47'0 0.0
2018-Feb-26 06:58N 17°01' W 061°47'0 0.0
2018-Feb-26 06:28N 17°01' W 061°47'0 0.0
2018-Feb-26 05:58N 17°01' W 061°47'0 0.0
2018-Feb-26 05:28N 17°01' W 061°47'0 0.0
2018-Feb-26 04:58N 17°01' W 061°47'0 0.0
2018-Feb-26 04:28N 17°01' W 061°47'0 0.0
2018-Feb-26 03:58N 17°01' W 061°47'0 0.0
2018-Feb-26 03:28N 17°01' W 061°47'0 0.0
2018-Feb-26 02:58N 17°01' W 061°47'0 0.0
2018-Feb-26 02:28N 17°01' W 061°47'0 0.0
2018-Feb-26 01:58N 17°01' W 061°47'0 0.0
2018-Feb-26 01:28N 17°01' W 061°47'0 0.0
2018-Feb-26 00:58N 17°01' W 061°47'0 0.0
2018-Feb-26 00:28N 17°01' W 061°47'0 0.0
2018-Feb-25 23:58N 17°01' W 061°47'0 0.0
2018-Feb-25 23:28N 17°01' W 061°47'0 0.0
2018-Feb-25 22:52N 17°01' W 061°47'0 0.0
2018-Feb-25 22:28N 17°01' W 061°47'0 0.0
2018-Feb-25 21:58N 17°01' W 061°47'0 0.0
2018-Feb-25 21:28N 17°01' W 061°47'0 0.0
2018-Feb-25 20:58N 17°01' W 061°47'0 0.0
2018-Feb-25 20:28N 17°01' W 061°47'0 0.0
2018-Feb-25 19:58N 17°01' W 061°47'0 0.0
2018-Feb-25 19:28N 17°01' W 061°47'0 0.0
2018-Feb-25 18:58N 17°01' W 061°47'0 0.0
2018-Feb-25 18:28N 17°01' W 061°47'0 0.0
2018-Feb-25 17:58N 17°01' W 061°47'0 0.0
2018-Feb-25 17:28N 17°01' W 061°47'0 0.0
2018-Feb-25 16:58N 17°01' W 061°47'0 0.0
2018-Feb-25 16:28N 17°01' W 061°47'0 0.0
2018-Feb-25 15:58N 17°01' W 061°47'0 0.0
2018-Feb-25 15:28N 17°01' W 061°47'0 0.0
2018-Feb-25 14:58N 17°01' W 061°47'0 0.0
2018-Feb-25 14:28N 17°01' W 061°47'0 0.0
2018-Feb-25 13:58N 17°01' W 061°47'0 0.0
2018-Feb-25 13:28N 17°01' W 061°47'0 0.0
2018-Feb-25 12:58N 17°01' W 061°47'0 0.0
2018-Feb-25 12:28N 17°01' W 061°47'0 0.0
2018-Feb-25 11:58N 17°01' W 061°47'0 0.0
2018-Feb-25 11:28N 17°01' W 061°47'0 0.0
2018-Feb-25 10:58N 17°01' W 061°47'0 0.0
2018-Feb-25 10:28N 17°01' W 061°47'0 0.0
2018-Feb-25 09:58N 17°01' W 061°47'0 0.0
2018-Feb-25 09:28N 17°01' W 061°47'0 0.0
2018-Feb-25 08:58N 17°01' W 061°47'0 0.0
2018-Feb-25 08:28N 17°01' W 061°47'0 0.0
2018-Feb-25 07:58N 17°01' W 061°47'0 0.0
2018-Feb-25 07:28N 17°01' W 061°47'0 0.0
2018-Feb-25 06:58N 17°01' W 061°47'0 0.0
2018-Feb-25 06:28N 17°01' W 061°47'0 0.0
2018-Feb-25 05:58N 17°01' W 061°47'0 0.0
2018-Feb-25 05:28N 17°01' W 061°47'0 0.0
2018-Feb-25 04:58N 17°01' W 061°47'0 0.0
2018-Feb-25 04:28N 17°01' W 061°47'0 0.0
2018-Feb-25 03:58N 17°01' W 061°47'0 0.0
2018-Feb-25 03:28N 17°01' W 061°47'0 0.0
2018-Feb-25 02:58N 17°01' W 061°47'0 0.0
2018-Feb-25 02:28N 17°01' W 061°47'0 0.0
2018-Feb-25 01:58N 17°01' W 061°47'0 0.0
2018-Feb-25 01:28N 17°01' W 061°47'0 0.0
2018-Feb-25 00:58N 17°01' W 061°47'0 0.0
2018-Feb-25 00:28N 17°01' W 061°47'0 0.0
2018-Feb-24 23:58N 17°01' W 061°47'0 0.0
2018-Feb-24 23:28N 17°01' W 061°47'0 0.0
2018-Feb-24 22:58N 17°01' W 061°47'0 0.0
2018-Feb-24 22:28N 17°01' W 061°47'0 0.0
2018-Feb-24 21:58N 17°01' W 061°47'2 3.9
2018-Feb-24 21:30N 17°00' W 061°49'3 6.3
2018-Feb-24 21:00N 17°01' W 061°52'1 0.3
2018-Feb-24 15:07N 17°01' W 061°53'1 6.1
2018-Feb-24 14:59N 17°01' W 061°52'3 6.2
2018-Feb-24 14:30N 17°00' W 061°49'3 5.2
2018-Feb-24 13:59N 17°01' W 061°47'0 0.0
2018-Feb-24 13:29N 17°01' W 061°47'0 0.0
2018-Feb-24 12:59N 17°01' W 061°47'0 0.0
2018-Feb-24 12:29N 17°01' W 061°47'0 0.0
2018-Feb-24 11:59N 17°01' W 061°47'0 0.0
2018-Feb-24 11:29N 17°01' W 061°47'0 0.0
2018-Feb-24 10:59N 17°01' W 061°47'0 0.0
2018-Feb-24 10:29N 17°01' W 061°47'0 0.0
2018-Feb-24 09:59N 17°01' W 061°47'0 0.0
2018-Feb-24 09:29N 17°01' W 061°47'0 0.0
2018-Feb-24 08:59N 17°01' W 061°47'0 0.0
2018-Feb-24 08:29N 17°01' W 061°47'0 0.0
2018-Feb-24 07:59N 17°01' W 061°47'0 0.0
2018-Feb-24 07:29N 17°01' W 061°47'0 0.0
2018-Feb-24 06:59N 17°01' W 061°47'0 0.0
2018-Feb-24 06:29N 17°01' W 061°47'0 0.0
2018-Feb-24 05:59N 17°01' W 061°47'0 0.0
2018-Feb-24 05:29N 17°01' W 061°47'0 0.0
2018-Feb-24 04:59N 17°01' W 061°47'0 0.0
2018-Feb-24 04:29N 17°01' W 061°47'0 0.0
2018-Feb-24 03:59N 17°01' W 061°47'0 0.0
2018-Feb-24 03:29N 17°01' W 061°47'0 0.0
2018-Feb-24 02:59N 17°01' W 061°47'0 0.0
2018-Feb-24 02:29N 17°01' W 061°47'0 0.0
2018-Feb-24 01:59N 17°01' W 061°47'0 0.0
2018-Feb-24 01:29N 17°01' W 061°47'0 0.0
2018-Feb-24 00:59N 17°01' W 061°47'0 0.0
2018-Feb-24 00:29N 17°01' W 061°47'0 0.0
2018-Feb-23 23:59N 17°01' W 061°47'0 0.0
2018-Feb-23 23:29N 17°01' W 061°47'0 0.0
2018-Feb-23 22:59N 17°01' W 061°47'0 0.0
2018-Feb-23 22:29N 17°01' W 061°47'0 0.0
2018-Feb-23 21:59N 17°01' W 061°47'0 0.0
2018-Feb-23 21:29N 17°01' W 061°47'0 0.0
2018-Feb-23 20:59N 17°01' W 061°47'0 0.0
2018-Feb-23 20:29N 17°01' W 061°47'0 0.0
2018-Feb-23 19:59N 17°01' W 061°47'0 0.0
2018-Feb-23 19:29N 17°01' W 061°47'0 0.0
2018-Feb-23 18:59N 17°01' W 061°47'0 0.0
2018-Feb-23 18:29N 17°01' W 061°47'0 0.0
2018-Feb-23 17:59N 17°01' W 061°47'0 0.0
2018-Feb-23 17:29N 17°01' W 061°47'0 0.0
2018-Feb-23 16:59N 17°01' W 061°47'0 0.0
2018-Feb-23 16:29N 17°01' W 061°47'0 0.0
2018-Feb-23 15:59N 17°01' W 061°47'0 0.0
2018-Feb-23 15:29N 17°01' W 061°47'0 0.0
2018-Feb-23 14:59N 17°01' W 061°47'0 0.0
2018-Feb-23 14:29N 17°01' W 061°47'0 0.0
2018-Feb-23 13:59N 17°01' W 061°47'0 0.0
2018-Feb-23 13:29N 17°01' W 061°47'0 0.0
2018-Feb-23 12:59N 17°01' W 061°47'0 0.0
2018-Feb-23 12:29N 17°01' W 061°47'0 0.0
2018-Feb-23 11:59N 17°01' W 061°47'  
Track history (hours):
 
Tides and Currents Weather Stations Pressure Air Temp Water Temp Dewpoint Dewpoint Depression Visibility Wind Speed Wind Dir Waves Ship Positions

Moose Of Poole

Last reported at 2018-Mar-05 11:38 UTC. Time now 2018-Jul-16 22:09 UTC.
Position N 16°07' W 061°47'.
Warning: this ship's position is months out of date.

Length 18 m.

Type: Sailing vessel. MMSI: 235111821.

Date/timePositionNaut miles runAvg speedWind from/ knotsBaromVisibWave heightAir tempDewpointWater temp
2018-Mar-05 11:38N 16°07' W 061°47'11 0.6
2018-Mar-04 16:36N 16°18' W 061°50'1 7.4
2018-Mar-04 16:28N 16°19' W 061°50'3 7.2
2018-Mar-04 16:00N 16°22' W 061°50'4 7.2
2018-Mar-04 15:30N 16°26' W 061°50'4 7.2
2018-Mar-04 15:00N 16°29' W 061°50'3 6.5
2018-Mar-04 14:30N 16°32' W 061°50'2 4.3
2018-Mar-04 14:00N 16°35' W 061°50'3 6.2
2018-Mar-04 13:28N 16°38' W 061°50'3 6.3
2018-Mar-04 13:00N 16°41' W 061°49'4 7.1
2018-Mar-04 12:30N 16°44' W 061°49'4 7.4
2018-Mar-04 12:00N 16°48' W 061°49'4 7.6
2018-Mar-04 11:30N 16°52' W 061°48'4 7.5
2018-Mar-04 11:00N 16°55' W 061°48'4 7.2
2018-Mar-04 10:29N 16°59' W 061°47'2 3.3
2018-Mar-04 09:59N 17°01' W 061°47'0 0.0
2018-Mar-04 09:29N 17°01' W 061°47'0 0.0
2018-Mar-04 08:59N 17°01' W 061°47'0 0.0
2018-Mar-04 08:29N 17°01' W 061°47'0 0.0
2018-Mar-04 07:59N 17°01' W 061°47'0 0.0
2018-Mar-04 07:29N 17°01' W 061°47'0 0.0
2018-Mar-04 06:59N 17°01' W 061°47'0 0.0
2018-Mar-04 06:29N 17°01' W 061°47'0 0.0
2018-Mar-04 05:59N 17°01' W 061°47'0 0.0
2018-Mar-04 05:29N 17°01' W 061°47'0 0.0
2018-Mar-04 04:59N 17°01' W 061°47'0 0.0
2018-Mar-04 04:29N 17°01' W 061°47'0 0.0
2018-Mar-04 03:59N 17°01' W 061°47'0 0.0
2018-Mar-04 03:29N 17°01' W 061°47'0 0.0
2018-Mar-04 02:59N 17°01' W 061°47'0 0.0
2018-Mar-04 02:29N 17°01' W 061°47'0 0.0
2018-Mar-04 01:59N 17°01' W 061°47'0 0.0
2018-Mar-04 01:29N 17°01' W 061°47'0 0.0
2018-Mar-04 00:59N 17°01' W 061°47'0 0.0
2018-Mar-04 00:29N 17°01' W 061°47'0 0.0
2018-Mar-03 23:59N 17°01' W 061°47'0 0.0
2018-Mar-03 23:29N 17°01' W 061°47'0 0.0
2018-Mar-03 22:59N 17°01' W 061°47'0 0.0
2018-Mar-03 22:29N 17°01' W 061°47'0 0.0
2018-Mar-03 21:59N 17°01' W 061°47'0 0.0
2018-Mar-03 21:29N 17°01' W 061°47'0 0.0
2018-Mar-03 20:59N 17°01' W 061°47'0 0.0
2018-Mar-03 20:29N 17°01' W 061°47'0 0.0
2018-Mar-03 19:59N 17°01' W 061°47'0 0.0
2018-Mar-03 19:29N 17°01' W 061°47'0 0.0
2018-Mar-03 18:59N 17°01' W 061°47'0 0.0
2018-Mar-03 18:29N 17°01' W 061°47'0 0.0
2018-Mar-03 17:59N 17°01' W 061°47'0 0.0
2018-Mar-03 17:29N 17°01' W 061°47'0 0.0
2018-Mar-03 16:59N 17°01' W 061°47'0 0.0
2018-Mar-03 16:29N 17°01' W 061°47'0 0.0
2018-Mar-03 15:59N 17°01' W 061°47'0 0.0
2018-Mar-03 15:29N 17°01' W 061°47'0 0.0
2018-Mar-03 14:59N 17°01' W 061°47'0 0.0
2018-Mar-03 14:29N 17°01' W 061°47'0 0.0
2018-Mar-03 13:59N 17°01' W 061°47'1 0.0
2018-Mar-01 17:24N 17°01' W 061°46'0 0.0
2018-Mar-01 14:49N 17°01' W 061°46'0 0.0
2018-Mar-01 14:28N 17°01' W 061°46'0 0.0
2018-Feb-28 12:33N 17°01' W 061°46'0 0.1
2018-Feb-28 12:30N 17°01' W 061°46'1 0.1
2018-Feb-28 05:01N 17°01' W 061°47'0 0.0
2018-Feb-28 04:58N 17°01' W 061°47'0 0.0
2018-Feb-28 04:28N 17°01' W 061°47'0 0.0
2018-Feb-28 03:58N 17°01' W 061°47'0 0.0
2018-Feb-28 03:28N 17°01' W 061°47'0 0.0
2018-Feb-28 02:58N 17°01' W 061°47'0 0.0
2018-Feb-28 02:28N 17°01' W 061°47'0 0.0
2018-Feb-28 01:58N 17°01' W 061°47'0 0.0
2018-Feb-28 01:28N 17°01' W 061°47'0 0.0
2018-Feb-28 00:58N 17°01' W 061°47'0 0.0
2018-Feb-28 00:28N 17°01' W 061°47'0 0.0
2018-Feb-27 23:58N 17°01' W 061°47'0 0.0
2018-Feb-27 23:28N 17°01' W 061°47'0 0.0
2018-Feb-27 22:58N 17°01' W 061°47'0 0.0
2018-Feb-27 22:28N 17°01' W 061°47'0 0.0
2018-Feb-27 21:58N 17°01' W 061°47'0 0.0
2018-Feb-27 21:28N 17°01' W 061°47'0 0.0
2018-Feb-27 20:58N 17°01' W 061°47'0 0.0
2018-Feb-27 20:28N 17°01' W 061°47'0 0.0
2018-Feb-27 19:58N 17°01' W 061°47'0 0.0
2018-Feb-27 19:28N 17°01' W 061°47'0 0.0
2018-Feb-27 18:58N 17°01' W 061°47'0 0.0
2018-Feb-27 18:28N 17°01' W 061°47'0 0.0
2018-Feb-27 17:58N 17°01' W 061°47'0 0.0
2018-Feb-27 17:28N 17°01' W 061°47'0 0.0
2018-Feb-27 16:58N 17°01' W 061°47'0 0.0
2018-Feb-27 16:28N 17°01' W 061°47'0 0.0
2018-Feb-27 15:58N 17°01' W 061°47'0 0.0
2018-Feb-27 15:28N 17°01' W 061°47'0 0.0
2018-Feb-27 14:58N 17°01' W 061°47'0 0.0
2018-Feb-27 14:28N 17°01' W 061°47'0 0.0
2018-Feb-27 13:58N 17°01' W 061°47'0 0.0
2018-Feb-27 13:28N 17°01' W 061°47'0 0.0
2018-Feb-27 12:55N 17°01' W 061°47'0 0.0
2018-Feb-27 12:28N 17°01' W 061°47'0 0.0
2018-Feb-27 11:58N 17°01' W 061°47'0 0.0
2018-Feb-27 11:28N 17°01' W 061°47'0 0.0
2018-Feb-27 10:58N 17°01' W 061°47'0 0.0
2018-Feb-27 10:28N 17°01' W 061°47'0 0.0
2018-Feb-27 09:58N 17°01' W 061°47'0 0.0
2018-Feb-27 09:28N 17°01' W 061°47'0 0.0
2018-Feb-27 08:58N 17°01' W 061°47'0 0.0
2018-Feb-27 08:28N 17°01' W 061°47'0 0.0
2018-Feb-27 07:58N 17°01' W 061°47'0 0.0
2018-Feb-27 07:28N 17°01' W 061°47'0 0.0
2018-Feb-27 06:58N 17°01' W 061°47'0 0.0
2018-Feb-27 06:28N 17°01' W 061°47'0 0.0
2018-Feb-27 05:58N 17°01' W 061°47'0 0.0
2018-Feb-27 05:28N 17°01' W 061°47'0 0.0
2018-Feb-27 04:58N 17°01' W 061°47'0 0.0
2018-Feb-27 04:28N 17°01' W 061°47'0 0.0
2018-Feb-27 03:58N 17°01' W 061°47'0 0.0
2018-Feb-27 03:28N 17°01' W 061°47'0 0.0
2018-Feb-27 02:58N 17°01' W 061°47'0 0.0
2018-Feb-27 02:28N 17°01' W 061°47'0 0.0
2018-Feb-27 01:58N 17°01' W 061°47'0 0.0
2018-Feb-27 01:28N 17°01' W 061°47'0 0.0
2018-Feb-27 00:58N 17°01' W 061°47'0 0.0
2018-Feb-27 00:28N 17°01' W 061°47'0 0.0
2018-Feb-26 23:58N 17°01' W 061°47'0 0.0
2018-Feb-26 23:28N 17°01' W 061°47'0 0.0
2018-Feb-26 22:58N 17°01' W 061°47'0 0.0
2018-Feb-26 22:28N 17°01' W 061°47'0 0.0
2018-Feb-26 21:58N 17°01' W 061°47'0 0.0
2018-Feb-26 21:28N 17°01' W 061°47'0 0.0
2018-Feb-26 20:58N 17°01' W 061°47'0 0.0
2018-Feb-26 20:28N 17°01' W 061°47'0 0.0
2018-Feb-26 19:58N 17°01' W 061°47'0 0.0
2018-Feb-26 19:28N 17°01' W 061°47'0 0.0
2018-Feb-26 18:58N 17°01' W 061°47'0 0.0
2018-Feb-26 18:28N 17°01' W 061°47'0 0.0
2018-Feb-26 17:58N 17°01' W 061°47'0 0.0
2018-Feb-26 17:28N 17°01' W 061°47'0 0.0
2018-Feb-26 16:58N 17°01' W 061°47'0 0.0
2018-Feb-26 16:22N 17°01' W 061°47'0 0.0
2018-Feb-26 15:58N 17°01' W 061°47'0 0.0
2018-Feb-26 15:28N 17°01' W 061°47'0 0.0
2018-Feb-26 14:58N 17°01' W 061°47'0 0.0
2018-Feb-26 14:28N 17°01' W 061°47'0 0.0
2018-Feb-26 13:58N 17°01' W 061°47'0 0.0
2018-Feb-26 13:28N 17°01' W 061°47'0 0.0
2018-Feb-26 12:52N 17°01' W 061°47'0 0.0
2018-Feb-26 12:28N 17°01' W 061°47'0 0.0
2018-Feb-26 11:58N 17°01' W 061°47'0 0.0
2018-Feb-26 11:28N 17°01' W 061°47'0 0.0
2018-Feb-26 10:58N 17°01' W 061°47'0 0.0
2018-Feb-26 10:28N 17°01' W 061°47'0 0.0
2018-Feb-26 09:58N 17°01' W 061°47'0 0.0
2018-Feb-26 09:28N 17°01' W 061°47'0 0.0
2018-Feb-26 08:58N 17°01' W 061°47'0 0.0
2018-Feb-26 08:28N 17°01' W 061°47'0 0.0
2018-Feb-26 07:58N 17°01' W 061°47'0 0.0
2018-Feb-26 07:28N 17°01' W 061°47'0 0.0
2018-Feb-26 06:58N 17°01' W 061°47'0 0.0
2018-Feb-26 06:28N 17°01' W 061°47'0 0.0
2018-Feb-26 05:58N 17°01' W 061°47'0 0.0
2018-Feb-26 05:28N 17°01' W 061°47'0 0.0
2018-Feb-26 04:58N 17°01' W 061°47'0 0.0
2018-Feb-26 04:28N 17°01' W 061°47'0 0.0
2018-Feb-26 03:58N 17°01' W 061°47'0 0.0
2018-Feb-26 03:28N 17°01' W 061°47'0 0.0
2018-Feb-26 02:58N 17°01' W 061°47'0 0.0
2018-Feb-26 02:28N 17°01' W 061°47'0 0.0
2018-Feb-26 01:58N 17°01' W 061°47'0 0.0
2018-Feb-26 01:28N 17°01' W 061°47'0 0.0
2018-Feb-26 00:58N 17°01' W 061°47'0 0.0
2018-Feb-26 00:28N 17°01' W 061°47'0 0.0
2018-Feb-25 23:58N 17°01' W 061°47'0 0.0
2018-Feb-25 23:28N 17°01' W 061°47'0 0.0
2018-Feb-25 22:52N 17°01' W 061°47'0 0.0
2018-Feb-25 22:28N 17°01' W 061°47'0 0.0
2018-Feb-25 21:58N 17°01' W 061°47'0 0.0
2018-Feb-25 21:28N 17°01' W 061°47'0 0.0
2018-Feb-25 20:58N 17°01' W 061°47'0 0.0
2018-Feb-25 20:28N 17°01' W 061°47'0 0.0
2018-Feb-25 19:58N 17°01' W 061°47'0 0.0
2018-Feb-25 19:28N 17°01' W 061°47'0 0.0
2018-Feb-25 18:58N 17°01' W 061°47'0 0.0
2018-Feb-25 18:28N 17°01' W 061°47'0 0.0
2018-Feb-25 17:58N 17°01' W 061°47'0 0.0
2018-Feb-25 17:28N 17°01' W 061°47'0 0.0
2018-Feb-25 16:58N 17°01' W 061°47'0 0.0
2018-Feb-25 16:28N 17°01' W 061°47'0 0.0
2018-Feb-25 15:58N 17°01' W 061°47'0 0.0
2018-Feb-25 15:28N 17°01' W 061°47'0 0.0
2018-Feb-25 14:58N 17°01' W 061°47'0 0.0
2018-Feb-25 14:28N 17°01' W 061°47'0 0.0
2018-Feb-25 13:58N 17°01' W 061°47'0 0.0
2018-Feb-25 13:28N 17°01' W 061°47'0 0.0
2018-Feb-25 12:58N 17°01' W 061°47'0 0.0
2018-Feb-25 12:28N 17°01' W 061°47'0 0.0
2018-Feb-25 11:58N 17°01' W 061°47'0 0.0
2018-Feb-25 11:28N 17°01' W 061°47'0 0.0
2018-Feb-25 10:58N 17°01' W 061°47'0 0.0
2018-Feb-25 10:28N 17°01' W 061°47'0 0.0
2018-Feb-25 09:58N 17°01' W 061°47'0 0.0
2018-Feb-25 09:28N 17°01' W 061°47'0 0.0
2018-Feb-25 08:58N 17°01' W 061°47'0 0.0
2018-Feb-25 08:28N 17°01' W 061°47'0 0.0
2018-Feb-25 07:58N 17°01' W 061°47'0 0.0
2018-Feb-25 07:28N 17°01' W 061°47'0 0.0
2018-Feb-25 06:58N 17°01' W 061°47'0 0.0
2018-Feb-25 06:28N 17°01' W 061°47'0 0.0
2018-Feb-25 05:58N 17°01' W 061°47'0 0.0
2018-Feb-25 05:28N 17°01' W 061°47'0 0.0
2018-Feb-25 04:58N 17°01' W 061°47'0 0.0
2018-Feb-25 04:28N 17°01' W 061°47'0 0.0
2018-Feb-25 03:58N 17°01' W 061°47'0 0.0
2018-Feb-25 03:28N 17°01' W 061°47'0 0.0
2018-Feb-25 02:58N 17°01' W 061°47'0 0.0
2018-Feb-25 02:28N 17°01' W 061°47'0 0.0
2018-Feb-25 01:58N 17°01' W 061°47'0 0.0
2018-Feb-25 01:28N 17°01' W 061°47'0 0.0
2018-Feb-25 00:58N 17°01' W 061°47'0 0.0
2018-Feb-25 00:28N 17°01' W 061°47'0 0.0
2018-Feb-24 23:58N 17°01' W 061°47'0 0.0
2018-Feb-24 23:28N 17°01' W 061°47'0 0.0
2018-Feb-24 22:58N 17°01' W 061°47'0 0.0
2018-Feb-24 22:28N 17°01' W 061°47'0 0.0
2018-Feb-24 21:58N 17°01' W 061°47'2 3.9
2018-Feb-24 21:30N 17°00' W 061°49'3 6.3
2018-Feb-24 21:00N 17°01' W 061°52'1 0.3
2018-Feb-24 15:07N 17°01' W 061°53'1 6.1
2018-Feb-24 14:59N 17°01' W 061°52'3 6.2
2018-Feb-24 14:30N 17°00' W 061°49'3 5.2
2018-Feb-24 13:59N 17°01' W 061°47'0 0.0
2018-Feb-24 13:29N 17°01' W 061°47'0 0.0
2018-Feb-24 12:59N 17°01' W 061°47'0 0.0
2018-Feb-24 12:29N 17°01' W 061°47'0 0.0
2018-Feb-24 11:59N 17°01' W 061°47'0 0.0
2018-Feb-24 11:29N 17°01' W 061°47'0 0.0
2018-Feb-24 10:59N 17°01' W 061°47'0 0.0
2018-Feb-24 10:29N 17°01' W 061°47'0 0.0
2018-Feb-24 09:59N 17°01' W 061°47'0 0.0
2018-Feb-24 09:29N 17°01' W 061°47'0 0.0
2018-Feb-24 08:59N 17°01' W 061°47'0 0.0
2018-Feb-24 08:29N 17°01' W 061°47'0 0.0
2018-Feb-24 07:59N 17°01' W 061°47'0 0.0
2018-Feb-24 07:29N 17°01' W 061°47'0 0.0
2018-Feb-24 06:59N 17°01' W 061°47'0 0.0
2018-Feb-24 06:29N 17°01' W 061°47'0 0.0
2018-Feb-24 05:59N 17°01' W 061°47'0 0.0
2018-Feb-24 05:29N 17°01' W 061°47'0 0.0
2018-Feb-24 04:59N 17°01' W 061°47'0 0.0
2018-Feb-24 04:29N 17°01' W 061°47'0 0.0
2018-Feb-24 03:59N 17°01' W 061°47'0 0.0
2018-Feb-24 03:29N 17°01' W 061°47'0 0.0
2018-Feb-24 02:59N 17°01' W 061°47'0 0.0
2018-Feb-24 02:29N 17°01' W 061°47'0 0.0
2018-Feb-24 01:59N 17°01' W 061°47'0 0.0
2018-Feb-24 01:29N 17°01' W 061°47'0 0.0
2018-Feb-24 00:59N 17°01' W 061°47'0 0.0
2018-Feb-24 00:29N 17°01' W 061°47'0 0.0
2018-Feb-23 23:59N 17°01' W 061°47'0 0.0
2018-Feb-23 23:29N 17°01' W 061°47'0 0.0
2018-Feb-23 22:59N 17°01' W 061°47'0 0.0
2018-Feb-23 22:29N 17°01' W 061°47'0 0.0
2018-Feb-23 21:59N 17°01' W 061°47'0 0.0
2018-Feb-23 21:29N 17°01' W 061°47'0 0.0
2018-Feb-23 20:59N 17°01' W 061°47'0 0.0
2018-Feb-23 20:29N 17°01' W 061°47'0 0.0
2018-Feb-23 19:59N 17°01' W 061°47'0 0.0
2018-Feb-23 19:29N 17°01' W 061°47'0 0.0
2018-Feb-23 18:59N 17°01' W 061°47'0 0.0
2018-Feb-23 18:29N 17°01' W 061°47'0 0.0
2018-Feb-23 17:59N 17°01' W 061°47'0 0.0
2018-Feb-23 17:29N 17°01' W 061°47'0 0.0
2018-Feb-23 16:59N 17°01' W 061°47'0 0.0
2018-Feb-23 16:29N 17°01' W 061°47'0 0.0
2018-Feb-23 15:59N 17°01' W 061°47'0 0.0
2018-Feb-23 15:29N 17°01' W 061°47'0 0.0
2018-Feb-23 14:59N 17°01' W 061°47'0 0.0
2018-Feb-23 14:29N 17°01' W 061°47'0 0.0
2018-Feb-23 13:59N 17°01' W 061°47'0 0.0
2018-Feb-23 13:29N 17°01' W 061°47'0 0.0
2018-Feb-23 12:59N 17°01' W 061°47'0 0.0
2018-Feb-23 12:29N 17°01' W 061°47'0 0.0
2018-Feb-23 11:59N 17°01' W 061°47'  

Dump ship's entire track history